createdAt,value
2019-01-11T00:00:03.692Z,2.17
2019-01-11T00:02:33.292Z,1.83
2019-01-11T00:05:03.915Z,1.87
2019-01-11T00:07:33.422Z,1.20
2019-01-11T00:10:02.864Z,1.70
2019-01-11T00:12:32.677Z,2.10
2019-01-11T00:15:02.362Z,1.40
2019-01-11T00:17:31.994Z,1.70
2019-01-11T00:20:03.700Z,1.50
2019-01-11T00:22:33.424Z,1.97
2019-01-11T00:25:02.970Z,1.33
2019-01-11T00:27:32.468Z,1.33
2019-01-11T00:30:02.020Z,1.50
2019-01-11T00:32:34.785Z,2.10
2019-01-11T00:35:04.844Z,1.40
2019-01-11T00:37:34.474Z,1.77
2019-01-11T00:40:24.443Z,1.90
2019-01-11T00:42:54.368Z,1.73
2019-01-11T00:45:23.882Z,1.47
2019-01-11T00:47:53.783Z,1.60
2019-01-11T00:50:23.415Z,1.63
2019-01-11T00:52:52.987Z,1.63
2019-01-11T00:55:33.878Z,2.23
2019-01-11T00:58:03.620Z,1.60
2019-01-11T01:00:33.622Z,1.80
2019-01-11T01:03:03.550Z,1.60
2019-01-11T01:06:12.324Z,1.80
2019-01-11T01:08:41.850Z,1.80
2019-01-11T01:11:14.945Z,1.50
2019-01-11T01:14:04.781Z,1.70
2019-01-11T01:16:34.533Z,1.60
2019-01-11T01:19:04.345Z,1.70
2019-01-11T01:24:08.990Z,1.80
2019-01-11T01:26:49.742Z,1.73
2019-01-11T01:29:19.418Z,1.53
2019-01-11T01:31:48.927Z,1.73
2019-01-11T01:34:18.485Z,1.53
2019-01-11T01:36:47.882Z,1.60
2019-01-11T01:39:36.228Z,1.80
2019-01-11T01:42:05.726Z,1.67
2019-01-11T01:44:35.377Z,1.60
2019-01-11T01:47:04.932Z,1.70
2019-01-11T01:49:34.309Z,1.80
2019-01-11T01:52:04.274Z,1.70
2019-01-11T01:54:33.940Z,1.43
2019-01-11T01:57:08.710Z,1.90
2019-01-11T02:02:13.174Z,1.47
2019-01-11T02:10:34.047Z,1.73
2019-01-11T02:18:38.184Z,1.30
2019-01-11T02:23:51.370Z,1.70
2019-01-11T02:26:21.036Z,1.47
2019-01-11T02:28:57.182Z,1.70
2019-01-11T02:31:26.597Z,1.20
2019-01-11T02:33:56.027Z,1.30
2019-01-11T02:39:00.875Z,1.57
2019-01-11T02:41:30.336Z,1.20
2019-01-11T02:44:06.581Z,2.27
2019-01-11T02:46:36.227Z,1.43
2019-01-11T02:49:05.784Z,1.70
2019-01-11T02:51:35.485Z,1.73
2019-01-11T02:54:05.237Z,1.73
2019-01-11T02:56:34.784Z,1.90
2019-01-11T02:59:04.836Z,1.70
2019-01-11T03:01:34.542Z,1.80
2019-01-11T03:04:04.182Z,1.70
2019-01-11T03:06:33.613Z,7.43
2019-01-11T03:09:04.275Z,1.67
2019-01-11T03:11:36.193Z,1.50
2019-01-11T03:14:05.813Z,1.60
2019-01-11T03:16:35.390Z,1.47
2019-01-11T03:19:05.223Z,2.20
2019-01-11T03:24:35.347Z,1.60
2019-01-11T03:27:05.017Z,1.70
2019-01-11T03:29:34.885Z,1.90
2019-01-11T03:32:04.649Z,1.83
2019-01-11T03:37:25.006Z,1.97
2019-01-11T03:39:54.511Z,2.03
2019-01-11T03:42:23.997Z,2.10
2019-01-11T03:44:53.606Z,1.70
2019-01-11T03:47:23.150Z,1.77
2019-01-11T03:49:54.949Z,1.63
2019-01-11T03:52:23.923Z,2.13
2019-01-11T03:54:53.423Z,1.77
2019-01-11T03:57:22.947Z,1.93
2019-01-11T03:59:56.065Z,2.07
2019-01-11T04:02:25.729Z,2.33
2019-01-11T04:04:55.257Z,4.43
2019-01-11T04:07:24.878Z,2.03
2019-01-11T04:09:54.400Z,2.17
2019-01-11T04:12:23.900Z,1.83
2019-01-11T04:14:56.562Z,3.27
2019-01-11T04:17:26.055Z,2.87
2019-01-11T04:20:01.784Z,2.07
2019-01-11T04:22:31.557Z,2.33
2019-01-11T04:25:22.830Z,2.23
2019-01-11T04:27:52.506Z,2.63
2019-01-11T04:30:22.825Z,2.30
2019-01-11T04:32:52.487Z,2.23
2019-01-11T04:35:22.343Z,1.93
2019-01-11T04:37:54.813Z,2.67
2019-01-11T04:40:24.465Z,3.60
2019-01-11T04:42:54.055Z,2.40
2019-01-11T04:45:25.451Z,2.27
2019-01-11T04:47:54.959Z,2.00
2019-01-11T04:50:25.031Z,3.53
2019-01-11T04:52:54.512Z,2.60
2019-01-11T04:55:24.051Z,2.50
2019-01-11T04:57:53.511Z,2.13
2019-01-11T05:00:24.525Z,4.43
2019-01-11T05:05:42.485Z,2.77
2019-01-11T05:08:11.930Z,2.73
2019-01-11T05:10:41.352Z,2.27
2019-01-11T05:13:36.114Z,2.17
2019-01-11T05:16:05.804Z,2.90
2019-01-11T05:18:35.251Z,2.70
2019-01-11T05:21:05.240Z,2.57
2019-01-11T05:23:34.757Z,3.47
2019-01-11T05:26:15.986Z,2.60
2019-01-11T05:28:45.599Z,2.03
2019-01-11T05:31:15.088Z,2.57
2019-01-11T05:34:03.581Z,3.80
2019-01-11T05:36:33.013Z,3.40
2019-01-11T05:39:02.437Z,2.10
2019-01-11T05:41:50.995Z,4.43
2019-01-11T05:44:20.508Z,2.33
2019-01-11T05:46:50.051Z,2.00
2019-01-11T05:49:19.569Z,2.30
2019-01-11T05:52:08.006Z,2.40
2019-01-11T05:54:37.589Z,2.80
2019-01-11T05:57:07.144Z,2.83
2019-01-11T05:59:36.555Z,2.50
2019-01-11T06:02:06.386Z,2.60
2019-01-11T06:04:56.462Z,2.87
2019-01-11T06:07:44.915Z,4.13
2019-01-11T06:10:16.067Z,2.60
2019-01-11T06:12:45.489Z,4.00
2019-01-11T06:15:15.465Z,2.87
2019-01-11T06:17:44.912Z,4.70
2019-01-11T06:20:16.092Z,2.70
2019-01-11T06:22:45.610Z,2.40
2019-01-11T06:25:15.042Z,2.97
2019-01-11T06:27:55.767Z,2.80
2019-01-11T06:30:25.488Z,3.70
2019-01-11T06:32:57.662Z,3.00
2019-01-11T06:35:27.224Z,6.33
2019-01-11T06:37:56.974Z,3.70
2019-01-11T06:40:26.455Z,3.97
2019-01-11T06:43:05.522Z,4.30
2019-01-11T06:45:37.220Z,2.97
2019-01-11T06:53:23.104Z,3.00
2019-01-11T06:55:52.668Z,4.67
2019-01-11T06:58:22.079Z,5.27
2019-01-11T07:00:51.574Z,2.77
2019-01-11T07:03:21.843Z,4.77
2019-01-11T07:05:52.227Z,4.37
2019-01-11T07:08:21.702Z,4.63
2019-01-11T07:10:51.334Z,3.43
2019-01-11T07:13:20.713Z,4.20
2019-01-11T07:15:50.150Z,3.17
2019-01-11T07:18:19.677Z,4.50
2019-01-11T07:20:49.075Z,3.23
2019-01-11T07:23:18.477Z,3.40
2019-01-11T07:28:34.939Z,3.27
2019-01-11T07:31:08.056Z,3.23
2019-01-11T07:33:40.730Z,4.70
2019-01-11T07:36:29.169Z,3.73
2019-01-11T07:39:38.048Z,5.43
2019-01-11T07:44:43.162Z,6.73
2019-01-11T07:47:12.662Z,4.50
2019-01-11T07:49:42.204Z,6.77
2019-01-11T07:52:11.745Z,4.73
2019-01-11T07:54:41.228Z,10.07
2019-01-11T07:57:10.741Z,4.17
2019-01-11T07:59:42.829Z,4.40
2019-01-11T08:04:47.861Z,5.40
2019-01-11T08:07:28.563Z,5.07
2019-01-11T08:10:09.690Z,5.37
2019-01-11T08:12:39.163Z,5.33
2019-01-11T08:15:29.285Z,6.23
2019-01-11T08:23:43.327Z,5.20
2019-01-11T08:26:24.856Z,6.40
2019-01-11T08:28:54.308Z,8.20
2019-01-11T08:31:23.844Z,6.30
2019-01-11T08:36:30.151Z,4.53
2019-01-11T08:38:59.582Z,8.77
2019-01-11T08:41:32.245Z,6.33
2019-01-11T08:44:01.685Z,6.57
2019-01-11T08:46:31.200Z,5.93
2019-01-11T08:49:00.660Z,8.90
2019-01-11T08:51:30.772Z,6.77
2019-01-11T08:54:00.175Z,8.07
2019-01-11T08:56:29.609Z,6.40
2019-01-11T08:58:59.292Z,7.70
2019-01-11T09:01:28.766Z,8.50
2019-01-11T09:03:58.372Z,8.37
2019-01-11T09:06:30.187Z,4.50
2019-01-11T09:08:59.575Z,7.43
2019-01-11T09:11:29.301Z,5.47
2019-01-11T09:13:59.166Z,7.63
2019-01-11T09:19:44.207Z,8.90
2019-01-11T09:22:13.637Z,4.97
2019-01-11T09:24:43.132Z,6.77
2019-01-11T09:27:31.514Z,7.73
2019-01-11T09:30:00.942Z,6.33
2019-01-11T09:32:30.483Z,7.20
2019-01-11T09:34:59.941Z,5.40
2019-01-11T09:37:29.382Z,7.97
2019-01-11T09:40:01.415Z,8.93
2019-01-11T09:42:30.903Z,8.10
2019-01-11T09:45:00.328Z,8.83
2019-01-11T09:47:29.789Z,7.13
2019-01-11T09:52:34.247Z,8.37
2019-01-11T09:55:04.399Z,6.63
2019-01-11T09:57:34.013Z,9.37
2019-01-11T10:00:03.817Z,6.80
2019-01-11T10:02:54.150Z,9.97
2019-01-11T10:05:35.338Z,8.97
2019-01-11T10:10:42.970Z,4.87
2019-01-11T10:13:31.423Z,6.50
2019-01-11T10:16:00.873Z,5.90
2019-01-11T10:18:30.328Z,6.37
2019-01-11T10:20:59.819Z,6.05
2019-01-11T10:23:29.471Z,6.67
2019-01-11T10:25:58.970Z,8.27
2019-01-11T10:28:28.385Z,7.33
2019-01-11T10:31:00.755Z,8.10
2019-01-11T10:33:35.948Z,8.03
2019-01-11T10:36:00.981Z,7.57
2019-01-11T10:38:30.443Z,6.17
2019-01-11T10:40:59.892Z,7.70
2019-01-11T10:43:29.391Z,6.60
2019-01-11T10:46:31.849Z,9.50
2019-01-11T10:49:01.395Z,6.77
2019-01-11T10:51:30.967Z,7.33
2019-01-11T10:54:00.453Z,8.53
2019-01-11T10:56:30.060Z,8.77
2019-01-11T10:58:59.497Z,10.03
2019-01-11T11:01:29.032Z,7.20
2019-01-11T11:03:58.926Z,12.53
2019-01-11T11:09:12.134Z,8.23
2019-01-11T11:14:35.117Z,5.67
2019-01-11T11:17:04.865Z,7.97
2019-01-11T11:19:34.275Z,5.50
2019-01-11T11:22:06.507Z,6.83
2019-01-11T11:24:35.963Z,5.83
2019-01-11T11:27:05.908Z,7.77
2019-01-11T11:34:56.251Z,5.20
2019-01-11T11:40:16.145Z,4.77
2019-01-11T11:42:45.691Z,4.97
2019-01-11T11:45:35.517Z,5.67
2019-01-11T11:48:13.755Z,7.80
2019-01-11T11:50:43.222Z,9.03
2019-01-11T11:53:12.737Z,7.60
2019-01-11T11:55:42.148Z,6.20
2019-01-11T11:58:11.813Z,4.67
2019-01-11T12:00:41.250Z,6.40
2019-01-11T12:03:29.813Z,6.57
2019-01-11T12:05:59.482Z,5.67
2019-01-11T12:08:29.450Z,4.80
2019-01-11T12:10:58.996Z,4.53
2019-01-11T12:13:28.444Z,7.13
2019-01-11T12:15:57.931Z,4.97
2019-01-11T12:21:04.040Z,5.23
2019-01-11T12:23:33.624Z,3.40
2019-01-11T12:26:03.357Z,3.33
2019-01-11T12:28:32.972Z,5.47
2019-01-11T12:31:02.442Z,4.27
2019-01-11T12:33:31.849Z,2.43
2019-01-11T12:36:01.285Z,3.70
2019-01-11T12:38:30.754Z,2.87
2019-01-11T12:41:00.357Z,4.27
2019-01-11T12:43:29.939Z,13.77
2019-01-11T12:45:59.437Z,4.23
2019-01-11T12:48:28.916Z,4.87
2019-01-11T12:50:58.320Z,4.20
2019-01-11T12:56:05.667Z,2.07
2019-01-11T12:58:46.259Z,4.20
2019-01-11T13:01:27.288Z,4.70
2019-01-11T13:04:11.967Z,3.77
2019-01-11T13:06:41.403Z,7.87
2019-01-11T13:09:11.060Z,5.93
2019-01-11T13:11:40.536Z,4.93
2019-01-11T13:14:29.290Z,6.80
2019-01-11T13:22:30.636Z,3.23
2019-01-11T13:25:00.236Z,5.50
2019-01-11T13:27:45.369Z,3.53
2019-01-11T13:30:03.478Z,7.97
2019-01-11T13:32:33.053Z,5.57
2019-01-11T13:35:16.478Z,5.93
2019-01-11T13:37:33.689Z,4.57
2019-01-11T13:42:37.752Z,3.03
2019-01-11T13:45:07.755Z,3.07
2019-01-11T13:47:37.176Z,4.80
2019-01-11T13:50:44.673Z,7.67
2019-01-11T13:53:26.423Z,4.90
2019-01-11T13:55:56.252Z,5.43
2019-01-11T13:58:25.989Z,3.17
2019-01-11T14:00:55.700Z,4.87
2019-01-11T14:06:01.282Z,3.73
2019-01-11T14:11:25.387Z,3.17
2019-01-11T14:13:55.036Z,3.40
2019-01-11T14:16:24.525Z,2.80
2019-01-11T14:18:54.214Z,4.07
2019-01-11T14:21:23.775Z,2.50
2019-01-11T14:23:53.230Z,4.23
2019-01-11T14:26:22.906Z,5.20
2019-01-11T14:28:52.349Z,2.63
2019-01-11T14:31:22.019Z,2.90
2019-01-11T14:36:26.509Z,2.37
2019-01-11T14:39:07.431Z,3.63
2019-01-11T14:41:37.523Z,2.83
2019-01-11T14:44:12.058Z,4.23
2019-01-11T14:47:00.751Z,5.03
2019-01-11T14:49:52.394Z,5.53
2019-01-11T14:52:22.042Z,5.80
2019-01-11T14:54:51.675Z,3.40
2019-01-11T14:57:21.668Z,2.63
2019-01-11T14:59:51.287Z,5.33
2019-01-11T15:02:21.036Z,4.43
2019-01-11T15:04:50.951Z,2.53
2019-01-11T15:07:20.486Z,4.37
2019-01-11T15:09:50.065Z,3.83
2019-01-11T15:12:21.917Z,6.33
2019-01-11T15:14:54.498Z,5.83
2019-01-11T15:17:43.108Z,4.13
2019-01-11T15:23:13.450Z,6.20
2019-01-11T15:25:51.954Z,3.93
2019-01-11T15:28:24.002Z,5.73
2019-01-11T15:30:56.180Z,4.00
2019-01-11T15:33:26.066Z,4.60
2019-01-11T15:35:55.764Z,6.50
2019-01-11T15:38:25.473Z,4.60
2019-01-11T15:40:55.234Z,2.50
2019-01-11T15:43:27.256Z,5.13
2019-01-11T15:48:59.897Z,3.20
2019-01-11T15:51:31.206Z,3.27
2019-01-11T15:56:50.249Z,2.03
2019-01-11T15:59:19.685Z,1.37
2019-01-11T16:02:10.309Z,1.80
2019-01-11T16:04:54.666Z,2.47
2019-01-11T16:07:24.317Z,3.23
2019-01-11T16:10:03.785Z,4.23
2019-01-11T16:13:17.122Z,2.07
2019-01-11T16:16:29.544Z,2.10
2019-01-11T16:18:59.428Z,2.40
2019-01-11T16:21:31.141Z,2.30
2019-01-11T16:24:00.688Z,1.40
2019-01-11T16:26:30.205Z,2.30
2019-01-11T16:28:59.774Z,1.70
2019-01-11T16:31:29.378Z,2.80
2019-01-11T16:34:06.342Z,0.93
2019-01-11T16:36:54.919Z,2.43
2019-01-11T16:39:24.400Z,1.80
2019-01-11T16:42:12.833Z,3.63
2019-01-11T16:44:42.748Z,2.37
2019-01-11T16:47:12.257Z,1.20
2019-01-11T16:50:00.851Z,3.03
2019-01-11T16:52:30.297Z,1.37
2019-01-11T16:55:18.806Z,4.90
2019-01-11T16:58:07.466Z,1.37
2019-01-11T17:00:37.323Z,1.00
2019-01-11T17:03:07.171Z,3.03
2019-01-11T17:05:36.682Z,2.30
2019-01-11T17:08:06.465Z,1.73
2019-01-11T17:10:36.006Z,3.50
2019-01-11T17:13:24.530Z,2.70
2019-01-11T17:18:47.808Z,2.83
2019-01-11T17:21:17.229Z,2.40
2019-01-11T17:23:46.657Z,4.30
2019-01-11T17:26:16.167Z,1.87
2019-01-11T17:28:45.668Z,1.77
2019-01-11T17:31:15.173Z,3.50
2019-01-11T17:33:44.720Z,1.70
2019-01-11T17:36:35.261Z,3.37
2019-01-11T17:39:25.389Z,2.83
2019-01-11T17:41:56.871Z,2.17
2019-01-11T17:44:29.400Z,3.30
2019-01-11T17:46:58.944Z,2.10
2019-01-11T17:49:28.390Z,1.40
2019-01-11T17:51:58.072Z,1.63
2019-01-11T17:54:27.575Z,2.00
2019-01-11T17:56:57.137Z,1.20
2019-01-11T17:59:26.878Z,3.43
2019-01-11T18:01:56.459Z,2.10
2019-01-11T18:04:26.050Z,1.63
2019-01-11T18:06:55.563Z,5.23
2019-01-11T18:09:25.187Z,1.73
2019-01-11T18:12:20.028Z,1.73
2019-01-11T18:17:40.579Z,2.10
2019-01-11T18:20:29.499Z,3.10
2019-01-11T18:22:58.953Z,2.63
2019-01-11T18:25:28.490Z,2.23
2019-01-11T18:27:57.967Z,2.63
2019-01-11T18:30:27.425Z,2.57
2019-01-11T18:32:57.130Z,3.53
2019-01-11T18:35:26.555Z,2.63
2019-01-11T18:38:08.042Z,2.00
2019-01-11T18:40:38.752Z,1.47
2019-01-11T18:43:08.446Z,1.23
2019-01-11T18:45:39.680Z,2.00
2019-01-11T18:48:09.105Z,2.67
2019-01-11T18:50:38.590Z,1.63
2019-01-11T18:53:13.738Z,1.77
2019-01-11T18:55:39.626Z,1.47
2019-01-11T18:58:09.030Z,1.20
2019-01-11T19:00:41.198Z,1.93
2019-01-11T19:03:10.718Z,1.87
2019-01-11T19:05:40.263Z,1.57
2019-01-11T19:08:09.881Z,1.43
2019-01-11T19:10:39.729Z,1.97
2019-01-11T19:13:09.329Z,1.30
2019-01-11T19:15:39.030Z,1.50
2019-01-11T19:18:08.401Z,1.77
2019-01-11T19:20:37.844Z,2.27
2019-01-11T19:23:07.433Z,4.10
2019-01-11T19:25:36.894Z,1.40
2019-01-11T19:28:06.317Z,1.03
2019-01-11T19:30:36.193Z,4.57
2019-01-11T19:33:26.020Z,2.47
2019-01-11T19:35:55.796Z,1.10
2019-01-11T19:38:25.418Z,1.60
2019-01-11T19:40:55.267Z,1.13
2019-01-11T19:43:43.813Z,0.87
2019-01-11T19:46:13.327Z,2.13
2019-01-11T19:49:04.456Z,2.13
2019-01-11T19:51:47.126Z,2.70
2019-01-11T19:54:28.438Z,1.87
2019-01-11T19:56:58.197Z,1.67
2019-01-11T19:59:27.811Z,1.90
2019-01-11T20:02:16.289Z,3.37
2019-01-11T20:04:57.236Z,1.83
2019-01-11T20:07:37.955Z,1.63
2019-01-11T20:10:19.517Z,1.63
2019-01-11T20:12:49.059Z,1.40
2019-01-11T20:15:38.890Z,1.33
2019-01-11T20:18:20.896Z,1.63
2019-01-11T20:20:50.917Z,2.03
2019-01-11T20:23:20.426Z,4.10
2019-01-11T20:25:50.029Z,1.00
2019-01-11T20:28:19.486Z,1.60
2019-01-11T20:30:48.943Z,1.30
2019-01-11T20:33:18.417Z,1.20
2019-01-11T20:35:47.860Z,2.73
2019-01-11T20:38:17.636Z,1.97
2019-01-11T20:40:47.306Z,3.13
2019-01-11T20:43:16.740Z,4.67
2019-01-11T20:45:46.147Z,1.70
2019-01-11T20:48:15.691Z,2.37
2019-01-11T20:51:04.367Z,2.27
2019-01-11T20:53:34.072Z,1.77
2019-01-11T20:56:03.497Z,2.10
2019-01-11T20:58:32.920Z,3.00
2019-01-11T21:01:02.794Z,1.20
2019-01-11T21:03:32.217Z,1.43
2019-01-11T21:06:01.682Z,1.87
2019-01-11T21:08:31.096Z,4.47
2019-01-11T21:11:23.710Z,2.37
2019-01-11T21:13:53.549Z,3.00
2019-01-11T21:16:42.311Z,2.87
2019-01-11T21:19:11.853Z,1.50
2019-01-11T21:21:44.105Z,1.57
2019-01-11T21:24:13.931Z,3.77
2019-01-11T21:26:43.543Z,2.57
2019-01-11T21:29:12.976Z,2.13
2019-01-11T21:31:42.770Z,2.60
2019-01-11T21:34:12.826Z,3.07
2019-01-11T21:36:42.323Z,2.10
2019-01-11T21:39:11.741Z,1.37
2019-01-11T21:41:41.190Z,1.50
2019-01-11T21:44:10.778Z,1.67
2019-01-11T21:46:40.148Z,3.87
2019-01-11T21:49:09.931Z,1.37
2019-01-11T21:51:39.381Z,2.63
2019-01-11T21:54:08.783Z,4.20
2019-01-11T21:56:38.371Z,4.40
2019-01-11T21:59:07.791Z,2.13
2019-01-11T22:04:26.052Z,4.17
2019-01-11T22:06:55.464Z,2.07
2019-01-11T22:09:24.914Z,2.80
2019-01-11T22:11:54.409Z,2.40
2019-01-11T22:14:23.921Z,1.87
2019-01-11T22:16:53.360Z,1.10
2019-01-11T22:19:23.392Z,2.63
2019-01-11T22:21:53.024Z,1.33
2019-01-11T22:24:22.669Z,2.57
2019-01-11T22:26:52.347Z,1.57
2019-01-11T22:29:41.119Z,2.83
2019-01-11T22:32:10.609Z,1.37
2019-01-11T22:34:40.063Z,1.97
2019-01-11T22:37:09.535Z,1.33
2019-01-11T22:39:58.116Z,3.17
2019-01-11T22:42:27.766Z,1.73
2019-01-11T22:44:57.403Z,1.80
2019-01-11T22:47:27.026Z,2.97
2019-01-11T22:49:56.453Z,5.30
2019-01-11T22:52:45.203Z,1.63
2019-01-11T22:55:36.195Z,4.27
2019-01-11T22:58:06.082Z,2.90
2019-01-11T23:00:59.752Z,2.27
2019-01-11T23:03:36.635Z,2.80
2019-01-11T23:06:43.077Z,3.20
2019-01-11T23:09:15.302Z,3.17
2019-01-11T23:12:23.017Z,3.03
2019-01-11T23:15:04.743Z,2.57
2019-01-11T23:17:47.514Z,2.83
2019-01-11T23:20:17.152Z,1.87
2019-01-11T23:25:46.235Z,1.63
2019-01-11T23:28:15.887Z,3.93
2019-01-11T23:31:04.364Z,3.50
2019-01-11T23:33:34.053Z,4.37
2019-01-11T23:36:03.619Z,3.83
2019-01-11T23:38:52.234Z,2.07
2019-01-11T23:41:21.915Z,2.43
2019-01-11T23:43:51.397Z,2.33
2019-01-11T23:46:20.876Z,4.53
2019-01-11T23:48:50.330Z,3.17
2019-01-11T23:51:20.053Z,3.30
2019-01-11T23:53:50.721Z,2.40
2019-01-11T23:56:32.875Z,4.77
2019-01-11T23:59:02.771Z,2.20
